createdAt,value
2022-10-11T00:01:18.632Z,14.80
2022-10-11T00:03:45.213Z,14.80
2022-10-11T00:06:11.756Z,14.77
2022-10-11T00:08:38.322Z,14.77
2022-10-11T00:11:06.965Z,14.75
2022-10-11T00:13:34.093Z,14.76
2022-10-11T00:16:00.643Z,14.71
2022-10-11T00:18:27.222Z,14.73
2022-10-11T00:21:05.648Z,14.74
2022-10-11T00:23:33.172Z,14.71
2022-10-11T00:26:01.342Z,14.68
2022-10-11T00:28:28.236Z,14.66
2022-10-11T00:30:54.845Z,14.65
2022-10-11T00:33:21.443Z,14.68
2022-10-11T00:35:48.734Z,14.69
2022-10-11T00:38:15.545Z,14.68
2022-10-11T00:40:42.222Z,14.68
2022-10-11T00:43:17.274Z,14.68
2022-10-11T00:46:20.676Z,14.62
2022-10-11T00:48:55.578Z,14.59
2022-10-11T00:51:36.448Z,14.57
2022-10-11T00:54:03.831Z,14.54
2022-10-11T00:56:34.189Z,14.53
2022-10-11T00:59:03.529Z,14.53
2022-10-11T01:01:30.258Z,14.54
2022-10-11T01:03:57.205Z,14.53
2022-10-11T01:06:23.802Z,14.53
2022-10-11T01:08:51.653Z,14.52
2022-10-11T01:11:20.824Z,14.51
2022-10-11T01:14:05.834Z,14.49
2022-10-11T01:16:37.894Z,14.46
2022-10-11T01:19:21.833Z,14.46
2022-10-11T01:22:23.305Z,14.45
2022-10-11T01:25:07.993Z,14.47
2022-10-11T01:27:36.625Z,14.41
2022-10-11T01:30:25.354Z,14.38
2022-10-11T01:33:16.130Z,14.37
2022-10-11T01:36:02.623Z,14.32
2022-10-11T01:38:45.832Z,14.32
2022-10-11T01:41:16.918Z,14.27
2022-10-11T01:43:44.360Z,14.24
2022-10-11T01:46:11.340Z,14.25
2022-10-11T01:48:51.689Z,14.23
2022-10-11T01:51:20.565Z,14.21
2022-10-11T01:54:00.177Z,14.20
2022-10-11T01:57:01.678Z,14.13
2022-10-11T01:59:37.313Z,14.09
2022-10-11T02:02:34.663Z,14.07
2022-10-11T02:05:19.757Z,14.05
2022-10-11T02:07:57.838Z,14.01
2022-10-11T02:10:44.446Z,13.99
2022-10-11T02:13:40.099Z,14.04
2022-10-11T02:16:12.758Z,14.04
2022-10-11T02:18:42.010Z,14.00
2022-10-11T02:21:10.597Z,13.99
2022-10-11T02:23:42.032Z,14.00
2022-10-11T02:26:09.917Z,13.94
2022-10-11T02:28:38.275Z,13.94
2022-10-11T02:31:06.663Z,13.90
2022-10-11T02:33:39.686Z,13.86
2022-10-11T02:36:13.116Z,13.92
2022-10-11T02:38:48.415Z,13.97
2022-10-11T02:41:29.723Z,13.91
2022-10-11T02:44:00.345Z,13.88
2022-10-11T02:46:30.419Z,13.94
2022-10-11T02:49:00.745Z,13.90
2022-10-11T02:51:30.420Z,13.91
2022-10-11T02:53:57.227Z,13.91
2022-10-11T02:56:23.762Z,13.88
2022-10-11T02:58:50.327Z,13.90
2022-10-11T03:01:16.929Z,13.85
2022-10-11T03:03:43.534Z,13.89
2022-10-11T03:06:10.094Z,13.89
2022-10-11T03:08:36.624Z,13.88
2022-10-11T03:11:03.168Z,13.84
2022-10-11T03:13:29.682Z,13.84
2022-10-11T03:16:03.148Z,13.72
2022-10-11T03:18:33.944Z,13.71
2022-10-11T03:21:00.485Z,13.75
2022-10-11T03:23:27.136Z,13.70
2022-10-11T03:25:53.740Z,13.68
2022-10-11T03:28:20.703Z,13.70
2022-10-11T03:30:51.308Z,13.71
2022-10-11T03:33:18.215Z,13.70
2022-10-11T03:35:46.111Z,13.70
2022-10-11T03:38:14.349Z,13.66
2022-10-11T03:40:42.161Z,13.68
2022-10-11T03:43:08.801Z,13.63
2022-10-11T03:45:35.527Z,13.60
2022-10-11T03:48:02.592Z,13.64
2022-10-11T03:50:29.129Z,13.64
2022-10-11T03:52:55.712Z,13.68
2022-10-11T03:55:22.237Z,13.65
2022-10-11T03:57:48.766Z,13.60
2022-10-11T04:00:15.475Z,13.57
2022-10-11T04:02:42.018Z,13.55
2022-10-11T04:05:08.928Z,13.54
2022-10-11T04:07:35.444Z,13.60
2022-10-11T04:10:02.010Z,13.63
2022-10-11T04:12:29.010Z,13.61
2022-10-11T04:14:55.586Z,13.63
2022-10-11T04:17:22.123Z,13.70
2022-10-11T04:19:48.709Z,13.77
2022-10-11T04:22:15.271Z,13.77
2022-10-11T04:24:41.823Z,13.81
2022-10-11T04:27:08.371Z,13.70
2022-10-11T04:29:34.904Z,13.73
2022-10-11T04:32:01.458Z,13.65
2022-10-11T04:34:28.088Z,13.71
2022-10-11T04:36:54.638Z,13.71
2022-10-11T04:39:21.261Z,13.68
2022-10-11T04:41:47.940Z,13.61
2022-10-11T04:44:14.571Z,13.68
2022-10-11T04:46:41.211Z,13.71
2022-10-11T04:49:07.754Z,13.69
2022-10-11T04:51:34.296Z,13.54
2022-10-11T04:54:00.843Z,13.48
2022-10-11T04:56:27.418Z,13.48
2022-10-11T04:58:54.669Z,13.45
2022-10-11T05:01:21.386Z,13.43
2022-10-11T05:03:48.132Z,13.41
2022-10-11T05:06:14.762Z,13.36
2022-10-11T05:08:41.627Z,13.44
2022-10-11T05:11:12.437Z,13.59
2022-10-11T05:13:40.562Z,13.65
2022-10-11T05:16:10.811Z,13.63
2022-10-11T05:18:38.368Z,13.53
2022-10-11T05:21:14.554Z,13.48
2022-10-11T05:23:41.232Z,13.38
2022-10-11T05:26:08.248Z,13.46
2022-10-11T05:28:35.121Z,13.46
2022-10-11T05:31:01.701Z,13.50
2022-10-11T05:33:28.349Z,13.36
2022-10-11T05:35:54.919Z,13.26
2022-10-11T05:38:21.677Z,13.28
2022-10-11T05:40:48.653Z,13.33
2022-10-11T05:43:15.323Z,13.27
2022-10-11T05:45:43.936Z,13.19
2022-10-11T05:48:11.173Z,13.17
2022-10-11T05:50:38.431Z,13.11
2022-10-11T05:53:05.359Z,13.21
2022-10-11T05:55:39.630Z,13.30
2022-10-11T05:58:06.874Z,13.35
2022-10-11T06:00:36.797Z,13.40
2022-10-11T06:03:04.132Z,13.48
2022-10-11T06:05:30.879Z,13.41
2022-10-11T06:08:00.162Z,13.26
2022-10-11T06:10:27.076Z,13.25
2022-10-11T06:12:53.682Z,13.24
2022-10-11T06:15:20.281Z,13.19
2022-10-11T06:17:47.124Z,13.19
2022-10-11T06:20:14.595Z,13.18
2022-10-11T06:22:41.242Z,13.17
2022-10-11T06:25:08.301Z,13.16
2022-10-11T06:27:34.866Z,13.16
2022-10-11T06:30:01.463Z,13.21
2022-10-11T06:32:28.006Z,13.21
2022-10-11T06:34:54.814Z,13.32
2022-10-11T06:37:21.353Z,13.39
2022-10-11T06:39:48.042Z,13.33
2022-10-11T06:42:14.568Z,13.25
2022-10-11T06:44:41.107Z,13.24
2022-10-11T06:47:08.666Z,13.30
2022-10-11T06:49:35.452Z,13.34
2022-10-11T06:52:02.065Z,13.32
2022-10-11T06:54:28.594Z,13.32
2022-10-11T06:56:55.150Z,13.29
2022-10-11T06:59:21.701Z,13.24
2022-10-11T07:01:48.256Z,13.26
2022-10-11T07:04:14.798Z,13.23
2022-10-11T07:06:41.660Z,13.18
2022-10-11T07:09:08.773Z,13.22
2022-10-11T07:11:35.541Z,13.25
2022-10-11T07:14:07.589Z,13.33
2022-10-11T07:16:36.198Z,13.35
2022-10-11T07:19:04.218Z,13.34
2022-10-11T07:21:32.038Z,13.40
2022-10-11T07:23:58.998Z,13.46
2022-10-11T07:26:25.765Z,13.47
2022-10-11T07:28:52.379Z,13.42
2022-10-11T07:31:21.891Z,13.42
2022-10-11T07:33:48.882Z,13.50
2022-10-11T07:36:15.738Z,13.56
2022-10-11T07:38:43.531Z,13.62
2022-10-11T07:41:11.268Z,13.64
2022-10-11T07:43:38.668Z,13.62
2022-10-11T07:46:06.082Z,13.63
2022-10-11T07:48:34.624Z,13.65
2022-10-11T07:51:04.734Z,13.65
2022-10-11T07:53:31.315Z,13.64
2022-10-11T07:56:02.243Z,13.68
2022-10-11T07:58:29.159Z,13.67
2022-10-11T08:00:55.779Z,13.75
2022-10-11T08:03:22.697Z,13.79
2022-10-11T08:05:49.430Z,13.80
2022-10-11T08:08:15.998Z,13.85
2022-10-11T08:10:42.620Z,13.90
2022-10-11T08:13:09.201Z,13.90
2022-10-11T08:15:36.067Z,13.95
2022-10-11T08:18:02.636Z,14.00
2022-10-11T08:20:31.101Z,14.02
2022-10-11T08:22:57.672Z,13.99
2022-10-11T08:25:24.255Z,14.02
2022-10-11T08:27:50.816Z,14.01
2022-10-11T08:30:17.534Z,13.94
2022-10-11T08:32:44.094Z,13.94
2022-10-11T08:35:10.626Z,14.02
2022-10-11T08:37:37.299Z,14.09
2022-10-11T08:40:05.860Z,14.18
2022-10-11T08:42:38.950Z,14.18
2022-10-11T08:45:12.104Z,14.23
2022-10-11T08:47:41.190Z,14.29
2022-10-11T08:50:14.675Z,14.32
2022-10-11T08:52:59.987Z,14.35
2022-10-11T08:55:34.837Z,14.20
2022-10-11T08:58:01.993Z,14.20
2022-10-11T09:00:31.648Z,14.20
2022-10-11T09:03:09.384Z,14.18
2022-10-11T09:05:45.905Z,14.16
2022-10-11T09:08:22.375Z,14.16
2022-10-11T09:11:23.040Z,14.18
2022-10-11T09:14:08.338Z,14.23
2022-10-11T09:16:57.574Z,14.22
2022-10-11T09:19:51.717Z,14.20
2022-10-11T09:22:43.250Z,14.23
2022-10-11T09:25:25.922Z,14.27
2022-10-11T09:28:17.838Z,14.30
2022-10-11T09:30:49.117Z,14.31
2022-10-11T09:33:21.558Z,14.34
2022-10-11T09:35:50.694Z,14.38
2022-10-11T09:38:36.646Z,14.43
2022-10-11T09:41:05.509Z,14.42
2022-10-11T09:43:32.041Z,14.44
2022-10-11T09:45:58.681Z,14.52
2022-10-11T09:48:28.744Z,14.54
2022-10-11T09:51:02.021Z,14.57
2022-10-11T09:53:51.974Z,14.50
2022-10-11T09:56:18.686Z,14.46
2022-10-11T09:58:45.277Z,14.49
2022-10-11T10:01:13.999Z,14.61
2022-10-11T10:03:42.290Z,14.70
2022-10-11T10:06:23.680Z,14.58
2022-10-11T10:08:50.678Z,14.72
2022-10-11T10:11:18.712Z,14.86
2022-10-11T10:13:51.861Z,14.96
2022-10-11T10:16:25.646Z,15.01
2022-10-11T10:18:56.037Z,15.06
2022-10-11T10:21:44.129Z,15.10
2022-10-11T10:24:29.119Z,15.12
2022-10-11T10:27:22.725Z,15.20
2022-10-11T10:30:10.293Z,15.24
2022-10-11T10:32:52.216Z,15.30
2022-10-11T10:35:46.671Z,15.36
2022-10-11T10:38:26.364Z,15.41
2022-10-11T10:41:09.350Z,15.34
2022-10-11T10:43:37.999Z,15.33
2022-10-11T10:46:23.306Z,15.22
2022-10-11T10:49:41.122Z,15.21
2022-10-11T10:52:20.785Z,15.22
2022-10-11T10:55:05.542Z,15.12
2022-10-11T10:58:07.146Z,15.08
2022-10-11T11:00:42.544Z,15.17
2022-10-11T11:03:16.617Z,15.16
2022-10-11T11:05:51.050Z,15.12
2022-10-11T11:08:38.954Z,15.07
2022-10-11T11:11:24.179Z,14.96
2022-10-11T11:14:11.545Z,14.94
2022-10-11T11:16:47.920Z,14.96
2022-10-11T11:19:26.999Z,14.93
2022-10-11T11:22:02.189Z,14.91
2022-10-11T11:24:34.605Z,14.95
2022-10-11T11:27:13.124Z,14.96
2022-10-11T11:30:05.463Z,14.88
2022-10-11T11:32:52.174Z,14.86
2022-10-11T11:35:33.542Z,14.80
2022-10-11T11:38:43.577Z,14.75
2022-10-11T11:41:26.040Z,14.78
2022-10-11T11:43:57.178Z,14.79
2022-10-11T11:46:29.376Z,14.81
2022-10-11T11:48:58.698Z,14.79
2022-10-11T11:51:31.550Z,14.82
2022-10-11T11:54:06.079Z,14.82
2022-10-11T11:57:04.692Z,14.84
2022-10-11T11:59:31.146Z,14.82
2022-10-11T12:02:12.957Z,14.85
2022-10-11T12:04:42.297Z,14.88
2022-10-11T12:07:16.405Z,14.92
2022-10-11T12:09:46.114Z,14.94
2022-10-11T12:12:29.471Z,14.98
2022-10-11T12:15:25.730Z,15.01
2022-10-11T12:17:55.854Z,15.03
2022-10-11T12:20:29.179Z,15.02
2022-10-11T12:22:58.421Z,14.93
2022-10-11T12:25:28.660Z,14.91
2022-10-11T12:28:00.332Z,14.92
2022-10-11T12:30:48.278Z,14.93
2022-10-11T12:33:32.202Z,14.94
2022-10-11T12:36:05.710Z,14.94
2022-10-11T12:38:37.850Z,14.94
2022-10-11T12:41:10.379Z,14.93
2022-10-11T12:44:17.030Z,14.90
2022-10-11T12:47:12.913Z,14.93
2022-10-11T12:50:06.754Z,15.06
2022-10-11T12:52:52.134Z,15.16
2022-10-11T12:55:22.932Z,15.25
2022-10-11T12:58:07.445Z,15.36
2022-10-11T13:00:41.588Z,15.45
2022-10-11T13:03:35.339Z,15.46
2022-10-11T13:06:27.768Z,15.51
2022-10-11T13:08:58.770Z,15.55
2022-10-11T13:11:29.976Z,15.63
2022-10-11T13:14:13.261Z,15.71
2022-10-11T13:17:00.958Z,15.80
2022-10-11T13:19:28.514Z,15.84
2022-10-11T13:21:58.165Z,15.87
2022-10-11T13:24:26.172Z,15.93
2022-10-11T13:26:55.334Z,15.97
2022-10-11T13:29:34.109Z,16.00
2022-10-11T13:32:08.264Z,16.14
2022-10-11T13:34:38.473Z,16.16
2022-10-11T13:37:05.957Z,16.12
2022-10-11T13:39:38.176Z,16.20
2022-10-11T13:42:10.839Z,16.23
2022-10-11T13:44:38.580Z,16.17
2022-10-11T13:47:05.446Z,16.23
2022-10-11T13:49:37.697Z,16.35
2022-10-11T13:52:26.977Z,16.40
2022-10-11T13:54:53.505Z,16.41
2022-10-11T13:57:21.927Z,16.44
2022-10-11T13:59:48.479Z,16.42
2022-10-11T14:02:18.513Z,16.38
2022-10-11T14:04:45.079Z,16.34
2022-10-11T14:07:31.821Z,16.38
2022-10-11T14:09:58.423Z,16.10
2022-10-11T14:12:43.258Z,15.95
2022-10-11T14:15:26.329Z,15.88
2022-10-11T14:17:53.132Z,15.85
2022-10-11T14:20:29.535Z,15.81
2022-10-11T14:22:58.871Z,15.75
2022-10-11T14:25:25.428Z,15.74
2022-10-11T14:27:52.038Z,15.72
2022-10-11T14:30:26.205Z,15.68
2022-10-11T14:32:55.525Z,15.65
2022-10-11T14:35:24.756Z,15.62
2022-10-11T14:37:51.960Z,15.62
2022-10-11T14:40:21.608Z,15.61
2022-10-11T14:42:48.432Z,15.56
2022-10-11T14:45:15.041Z,15.55
2022-10-11T14:47:43.166Z,15.52
2022-10-11T14:50:37.527Z,15.49
2022-10-11T14:53:04.776Z,15.48
2022-10-11T14:55:31.654Z,15.45
2022-10-11T14:57:58.399Z,15.46
2022-10-11T15:00:26.851Z,15.44
2022-10-11T15:02:53.912Z,15.45
2022-10-11T15:05:21.927Z,15.46
2022-10-11T15:07:48.899Z,15.52
2022-10-11T15:10:22.221Z,15.65
2022-10-11T15:12:50.129Z,15.74
2022-10-11T15:15:22.405Z,15.72
2022-10-11T15:17:54.789Z,15.59
2022-10-11T15:20:34.181Z,15.50
2022-10-11T15:23:01.376Z,15.45
2022-10-11T15:25:29.083Z,15.38
2022-10-11T15:27:56.534Z,15.37
2022-10-11T15:30:25.458Z,15.33
2022-10-11T15:32:52.779Z,15.27
2022-10-11T15:35:20.602Z,15.24
2022-10-11T15:37:47.314Z,15.22
2022-10-11T15:40:20.024Z,15.19
2022-10-11T15:42:46.909Z,15.19
2022-10-11T15:45:13.545Z,15.19
2022-10-11T15:47:40.192Z,15.15
2022-10-11T15:50:39.281Z,15.15
2022-10-11T15:53:15.814Z,15.13
2022-10-11T15:55:46.659Z,15.07
2022-10-11T15:58:13.512Z,15.03
2022-10-11T16:00:40.264Z,14.98
2022-10-11T16:03:07.136Z,14.93
2022-10-11T16:05:33.806Z,14.89
2022-10-11T16:08:00.413Z,14.88
2022-10-11T16:10:27.011Z,14.91
2022-10-11T16:12:53.656Z,14.91
2022-10-11T16:15:20.196Z,14.86
2022-10-11T16:17:47.118Z,14.78
2022-10-11T16:20:14.182Z,14.69
2022-10-11T16:22:41.357Z,14.62
2022-10-11T16:25:07.938Z,14.57
2022-10-11T16:27:34.783Z,14.53
2022-10-11T16:30:01.458Z,14.54
2022-10-11T16:32:28.438Z,14.54
2022-10-11T16:34:54.978Z,14.54
2022-10-11T16:37:21.574Z,14.53
2022-10-11T16:39:48.155Z,14.45
2022-10-11T16:42:14.782Z,14.41
2022-10-11T16:44:41.324Z,14.37
2022-10-11T16:47:07.910Z,14.49
2022-10-11T16:49:34.858Z,14.53
2022-10-11T16:52:03.862Z,14.53
2022-10-11T16:54:31.011Z,14.50
2022-10-11T16:56:58.534Z,14.43
2022-10-11T16:59:25.497Z,14.44
2022-10-11T17:01:52.054Z,14.47
2022-10-11T17:04:18.743Z,14.46
2022-10-11T17:06:45.362Z,14.41
2022-10-11T17:09:11.971Z,14.36
2022-10-11T17:11:38.679Z,14.34
2022-10-11T17:14:06.187Z,14.32
2022-10-11T17:16:32.903Z,14.34
2022-10-11T17:18:59.539Z,14.29
2022-10-11T17:21:26.120Z,14.20
2022-10-11T17:23:52.760Z,14.13
2022-10-11T17:26:23.231Z,14.06
2022-10-11T17:28:50.000Z,14.09
2022-10-11T17:31:17.122Z,14.17
2022-10-11T17:33:43.689Z,14.16
2022-10-11T17:36:23.041Z,14.12
2022-10-11T17:38:51.253Z,14.26
2022-10-11T17:41:18.335Z,14.38
2022-10-11T17:43:45.088Z,14.40
2022-10-11T17:46:12.975Z,14.29
2022-10-11T17:48:39.606Z,14.16
2022-10-11T17:51:11.265Z,14.07
2022-10-11T17:53:38.123Z,14.15
2022-10-11T17:56:14.206Z,14.28
2022-10-11T17:58:41.037Z,14.31
2022-10-11T18:01:10.821Z,14.33
2022-10-11T18:03:37.976Z,14.29
2022-10-11T18:06:09.836Z,14.26
2022-10-11T18:08:40.603Z,14.23
2022-10-11T18:11:12.609Z,14.09
2022-10-11T18:13:42.398Z,14.01
2022-10-11T18:16:10.705Z,13.95
2022-10-11T18:18:37.967Z,14.04
2022-10-11T18:21:04.765Z,14.16
2022-10-11T18:23:31.644Z,14.21
2022-10-11T18:25:58.204Z,14.24
2022-10-11T18:28:24.862Z,14.25
2022-10-11T18:30:53.122Z,14.24
2022-10-11T18:33:19.671Z,14.22
2022-10-11T18:35:46.198Z,14.20
2022-10-11T18:38:12.713Z,14.13
2022-10-11T18:40:43.423Z,14.13
2022-10-11T18:43:13.099Z,14.21
2022-10-11T18:45:39.616Z,14.23
2022-10-11T18:48:08.424Z,14.18
2022-10-11T18:50:35.582Z,14.14
2022-10-11T18:55:29.731Z,14.10
2022-10-11T18:57:56.358Z,14.03
2022-10-11T19:00:40.046Z,14.05
2022-10-11T19:03:07.529Z,14.17
2022-10-11T19:05:34.151Z,14.19
2022-10-11T19:08:00.798Z,14.21
2022-10-11T19:10:27.342Z,14.19
2022-10-11T19:12:55.451Z,14.19
2022-10-11T19:15:26.464Z,14.18
2022-10-11T19:17:55.137Z,14.19
2022-10-11T19:20:21.870Z,14.15
2022-10-11T19:22:48.470Z,14.16
2022-10-11T19:25:15.212Z,14.14
2022-10-11T19:27:41.737Z,14.12
2022-10-11T19:30:09.036Z,14.07
2022-10-11T19:32:35.651Z,14.02
2022-10-11T19:35:02.208Z,14.01
2022-10-11T19:37:28.985Z,13.92
2022-10-11T19:39:55.750Z,13.77
2022-10-11T19:42:22.343Z,13.58
2022-10-11T19:44:48.894Z,13.55
2022-10-11T19:47:16.273Z,13.62
2022-10-11T19:49:42.822Z,13.65
2022-10-11T19:52:09.534Z,13.68
2022-10-11T19:54:36.064Z,13.77
2022-10-11T19:57:02.869Z,13.90
2022-10-11T19:59:29.442Z,13.98
2022-10-11T20:01:55.990Z,14.02
2022-10-11T20:04:50.533Z,14.05
2022-10-11T20:07:11.070Z,14.03
2022-10-11T20:09:37.629Z,14.00
2022-10-11T20:12:04.393Z,14.01
2022-10-11T20:14:30.965Z,14.00
2022-10-11T20:16:57.500Z,13.97
2022-10-11T20:19:30.721Z,13.94
2022-10-11T20:21:58.758Z,13.87
2022-10-11T20:24:27.425Z,13.83
2022-10-11T20:26:54.326Z,13.71
2022-10-11T20:29:20.864Z,13.70
2022-10-11T20:31:47.403Z,13.77
2022-10-11T20:34:13.987Z,13.88
2022-10-11T20:36:40.681Z,13.91
2022-10-11T20:39:07.273Z,13.92
2022-10-11T20:41:37.050Z,13.91
2022-10-11T20:44:03.908Z,13.92
2022-10-11T20:46:32.857Z,13.93
2022-10-11T20:49:02.383Z,13.90
2022-10-11T20:51:33.869Z,13.91
2022-10-11T20:54:02.071Z,13.92
2022-10-11T20:56:29.704Z,13.91
2022-10-11T20:58:57.159Z,13.91
2022-10-11T21:01:35.557Z,13.91
2022-10-11T21:04:02.459Z,13.90
2022-10-11T21:06:30.151Z,13.90
2022-10-11T21:08:58.938Z,13.87
2022-10-11T21:11:31.194Z,13.90
2022-10-11T21:13:59.020Z,13.96
2022-10-11T21:16:26.139Z,13.96
2022-10-11T21:18:54.064Z,13.95
2022-10-11T21:21:21.090Z,13.94
2022-10-11T21:23:47.605Z,13.89
2022-10-11T21:26:16.737Z,13.76
2022-10-11T21:28:44.963Z,13.68
2022-10-11T21:31:14.338Z,13.49
2022-10-11T21:33:42.207Z,13.46
2022-10-11T21:36:11.386Z,13.60
2022-10-11T21:38:38.286Z,13.73
2022-10-11T21:41:09.433Z,13.75
2022-10-11T21:43:38.073Z,13.73
2022-10-11T21:46:11.602Z,13.65
2022-10-11T21:48:38.449Z,13.56
2022-10-11T21:51:05.313Z,13.44
2022-10-11T21:53:32.105Z,13.26
2022-10-11T21:56:01.550Z,13.31
2022-10-11T21:58:28.466Z,13.50
2022-10-11T22:00:55.039Z,13.60
2022-10-11T22:03:21.685Z,13.63
2022-10-11T22:05:48.551Z,13.66
2022-10-11T22:08:15.554Z,13.67
2022-10-11T22:10:52.127Z,13.68
2022-10-11T22:13:18.668Z,13.70
2022-10-11T22:15:45.186Z,13.72
2022-10-11T22:18:11.714Z,13.72
2022-10-11T22:20:38.243Z,13.71
2022-10-11T22:23:04.779Z,13.70
2022-10-11T22:25:31.311Z,13.65
2022-10-11T22:27:57.858Z,13.63
2022-10-11T22:30:24.396Z,13.56
2022-10-11T22:32:51.832Z,13.57
2022-10-11T22:35:19.122Z,13.50
2022-10-11T22:37:45.743Z,13.48
2022-10-11T22:40:12.301Z,13.43
2022-10-11T22:42:38.816Z,13.38
2022-10-11T22:45:05.730Z,13.20
2022-10-11T22:47:32.274Z,13.09
2022-10-11T22:49:58.819Z,13.09
2022-10-11T22:52:25.384Z,13.14
2022-10-11T22:54:51.931Z,13.19
2022-10-11T22:57:18.478Z,13.22
2022-10-11T22:59:45.004Z,13.31
2022-10-11T23:02:11.549Z,13.39
2022-10-11T23:04:38.061Z,13.46
2022-10-11T23:07:05.208Z,13.51
2022-10-11T23:09:31.904Z,13.48
2022-10-11T23:11:59.265Z,13.50
2022-10-11T23:14:25.817Z,13.46
2022-10-11T23:16:52.861Z,13.44
2022-10-11T23:19:19.553Z,13.45
2022-10-11T23:21:46.775Z,13.39
2022-10-11T23:24:13.509Z,13.34
2022-10-11T23:26:40.038Z,13.35
2022-10-11T23:29:06.567Z,13.32
2022-10-11T23:31:33.088Z,13.20
2022-10-11T23:33:59.618Z,13.10
2022-10-11T23:36:26.195Z,13.13
2022-10-11T23:38:54.401Z,13.23
2022-10-11T23:41:21.930Z,13.35
2022-10-11T23:43:48.458Z,13.38
2022-10-11T23:46:15.059Z,13.39
2022-10-11T23:48:41.700Z,13.35
2022-10-11T23:51:08.304Z,13.36
2022-10-11T23:53:35.263Z,13.35
2022-10-11T23:56:02.377Z,13.36
2022-10-11T23:58:28.967Z,13.39
